createdAt,value
2018-08-20T00:00:42.820Z,53.66
2018-08-20T00:01:52.718Z,53.66
2018-08-20T00:03:02.880Z,53.75
2018-08-20T00:04:13.044Z,53.66
2018-08-20T00:05:22.910Z,53.95
2018-08-20T00:06:33.983Z,54.43
2018-08-20T00:07:43.870Z,54.24
2018-08-20T00:08:53.832Z,54.33
2018-08-20T00:10:03.976Z,54.33
2018-08-20T00:11:13.884Z,54.53
2018-08-20T00:12:24.064Z,54.91
2018-08-20T00:13:34.215Z,54.91
2018-08-20T00:14:44.389Z,54.72
2018-08-20T00:15:54.552Z,54.31
2018-08-20T00:17:04.737Z,54.79
2018-08-20T00:18:14.859Z,54.4
2018-08-20T00:19:25.029Z,54.5
2018-08-20T00:20:35.158Z,54.31
2018-08-20T00:21:45.282Z,54.69
2018-08-20T00:22:56.528Z,54.69
2018-08-20T00:24:06.691Z,54.79
2018-08-20T00:25:16.483Z,54.6
2018-08-20T00:26:26.638Z,54.69
2018-08-20T00:27:36.828Z,54.79
2018-08-20T00:28:46.699Z,55.18
2018-08-20T00:29:56.849Z,54.98
2018-08-20T00:31:07.003Z,54.79
2018-08-20T00:32:17.142Z,54.69
2018-08-20T00:33:27.271Z,54.69
2018-08-20T00:34:37.413Z,55.08
2018-08-20T00:35:47.555Z,55.18
2018-08-20T00:36:57.708Z,55.46
2018-08-20T00:38:07.843Z,55.46
2018-08-20T00:39:17.980Z,54.98
2018-08-20T00:40:27.920Z,55.27
2018-08-20T00:41:37.811Z,55.66
2018-08-20T00:42:48.924Z,55.44
2018-08-20T00:43:58.891Z,55.15
2018-08-20T00:45:08.810Z,55.46
2018-08-20T00:46:18.963Z,55.44
2018-08-20T00:47:29.188Z,55.27
2018-08-20T00:48:39.329Z,55.08
2018-08-20T00:49:49.475Z,55.46
2018-08-20T00:50:59.594Z,55.36
2018-08-20T00:52:09.723Z,55.46
2018-08-20T00:53:19.888Z,55.46
2018-08-20T00:54:30.020Z,55.36
2018-08-20T00:55:40.129Z,55.18
2018-08-20T00:56:49.944Z,55.46
2018-08-20T00:58:00.260Z,55.36
2018-08-20T00:59:10.128Z,55.27
2018-08-20T01:00:20.250Z,55.36
2018-08-20T01:01:30.374Z,55.27
2018-08-20T01:02:40.588Z,55.27
2018-08-20T01:03:50.797Z,55.18
2018-08-20T01:05:00.978Z,55.27
2018-08-20T01:06:11.018Z,55.18
2018-08-20T01:07:21.140Z,55.36
2018-08-20T01:08:31.294Z,55.18
2018-08-20T01:09:41.428Z,55.36
2018-08-20T01:10:51.290Z,54.98
2018-08-20T01:12:01.419Z,55.46
2018-08-20T01:13:11.286Z,55.46
2018-08-20T01:14:21.416Z,55.46
2018-08-20T01:15:31.600Z,55.27
2018-08-20T01:16:41.483Z,55.18
2018-08-20T01:17:51.604Z,55.56
2018-08-20T01:19:01.756Z,55.66
2018-08-20T01:20:12.851Z,55.46
2018-08-20T01:21:23.087Z,55.27
2018-08-20T01:22:33.347Z,55.36
2018-08-20T01:23:43.543Z,55.18
2018-08-20T01:24:53.439Z,55.08
2018-08-20T01:26:03.365Z,55.27
2018-08-20T01:27:13.487Z,55.36
2018-08-20T01:28:23.633Z,55.46
2018-08-20T01:29:33.493Z,55.36
2018-08-20T01:30:43.604Z,55.56
2018-08-20T01:31:53.765Z,55.56
2018-08-20T01:33:03.902Z,55.56
2018-08-20T01:34:14.199Z,55.56
2018-08-20T01:35:24.371Z,55.36
2018-08-20T01:36:34.290Z,55.46
2018-08-20T01:37:44.413Z,55.76
2018-08-20T01:38:54.542Z,55.85
2018-08-20T01:40:04.757Z,55.85
2018-08-20T01:41:14.944Z,55.66
2018-08-20T01:42:25.149Z,55.66
2018-08-20T01:43:35.034Z,55.66
2018-08-20T01:44:45.154Z,55.85
2018-08-20T01:45:55.246Z,55.85
2018-08-20T01:47:05.505Z,55.85
2018-08-20T01:48:15.710Z,55.66
2018-08-20T01:49:25.623Z,55.56
2018-08-20T01:50:35.783Z,55.56
2018-08-20T01:51:45.977Z,55.85
2018-08-20T01:52:56.105Z,55.66
2018-08-20T01:54:06.239Z,55.66
2018-08-20T01:55:16.194Z,56.14
2018-08-20T01:56:26.399Z,56.04
2018-08-20T01:57:36.630Z,56.14
2018-08-20T01:58:46.839Z,55.94
2018-08-20T01:59:56.997Z,55.66
2018-08-20T02:01:07.136Z,55.76
2018-08-20T02:02:17.072Z,55.94
2018-08-20T02:03:26.948Z,56.04
2018-08-20T02:04:36.710Z,56.14
2018-08-20T02:05:48.021Z,56.14
2018-08-20T02:06:57.653Z,56.49
2018-08-20T02:08:07.171Z,56.4
2018-08-20T02:09:17.354Z,56.4
2018-08-20T02:10:27.531Z,56.4
2018-08-20T02:11:37.738Z,56.4
2018-08-20T02:12:47.998Z,56.69
2018-08-20T02:13:57.913Z,56.69
2018-08-20T02:15:08.080Z,56.59
2018-08-20T02:16:18.278Z,56.59
2018-08-20T02:17:27.894Z,56.88
2018-08-20T02:18:37.748Z,56.98
2018-08-20T02:19:48.025Z,56.98
2018-08-20T02:20:58.224Z,57.07
2018-08-20T02:22:07.851Z,57.37
2018-08-20T02:23:17.730Z,57.07
2018-08-20T02:24:27.888Z,57.37
2018-08-20T02:25:37.507Z,57.27
2018-08-20T02:26:47.112Z,57.17
2018-08-20T02:27:57.230Z,57.56
2018-08-20T02:29:07.360Z,57.56
2018-08-20T02:30:17.720Z,57.27
2018-08-20T02:31:27.854Z,57.85
2018-08-20T02:32:38.019Z,57.65
2018-08-20T02:33:48.141Z,57.56
2018-08-20T02:34:58.374Z,57.65
2018-08-20T02:36:09.348Z,57.75
2018-08-20T02:37:19.502Z,57.92
2018-08-20T02:38:29.631Z,58.2
2018-08-20T02:39:39.788Z,58.2
2018-08-20T02:40:50.065Z,58.01
2018-08-20T02:41:59.933Z,58.01
2018-08-20T02:43:09.902Z,58.49
2018-08-20T02:44:20.113Z,58.3
2018-08-20T02:45:30.234Z,58.4
2018-08-20T02:46:40.212Z,58.2
2018-08-20T02:47:50.378Z,58.49
2018-08-20T02:49:00.603Z,58.49
2018-08-20T02:50:10.732Z,58.2
2018-08-20T02:51:20.959Z,58.3
2018-08-20T02:52:31.287Z,58.3
2018-08-20T02:53:41.490Z,58.59
2018-08-20T02:54:51.615Z,58.78
2018-08-20T02:56:01.528Z,58.88
2018-08-20T02:57:11.390Z,58.59
2018-08-20T02:58:21.508Z,58.78
2018-08-20T02:59:31.627Z,58.59
2018-08-20T03:00:41.800Z,59.17
2018-08-20T03:01:51.973Z,59.55
2018-08-20T03:03:02.272Z,59.36
2018-08-20T03:04:12.532Z,59.36
2018-08-20T03:05:22.786Z,59.65
2018-08-20T03:06:32.910Z,59.36
2018-08-20T03:07:43.112Z,59.75
2018-08-20T03:08:53.249Z,59.75
2018-08-20T03:10:02.871Z,59.55
2018-08-20T03:11:13.028Z,59.94
2018-08-20T03:12:23.148Z,59.55
2018-08-20T03:13:33.272Z,59.55
2018-08-20T03:14:43.060Z,59.36
2018-08-20T03:15:53.238Z,59.55
2018-08-20T03:17:03.462Z,59.75
2018-08-20T03:18:13.344Z,59.94
2018-08-20T03:19:23.268Z,59.75
2018-08-20T03:20:34.398Z,59.65
2018-08-20T03:21:44.271Z,59.55
2018-08-20T03:22:54.134Z,59.75
2018-08-20T03:24:04.287Z,59.75
2018-08-20T03:25:14.591Z,60.03
2018-08-20T03:26:24.776Z,59.84
2018-08-20T03:27:34.905Z,60.03
2018-08-20T03:28:44.832Z,59.94
2018-08-20T03:29:54.994Z,60.23
2018-08-20T03:31:05.266Z,59.75
2018-08-20T03:32:15.428Z,59.75
2018-08-20T03:33:25.585Z,59.75
2018-08-20T03:34:35.821Z,59.65
2018-08-20T03:35:45.968Z,59.55
2018-08-20T03:36:56.205Z,59.55
2018-08-20T03:38:06.076Z,60.03
2018-08-20T03:39:16.270Z,59.84
2018-08-20T03:40:26.418Z,60.13
2018-08-20T03:41:36.659Z,59.65
2018-08-20T03:42:46.939Z,59.94
2018-08-20T03:43:57.157Z,59.84
2018-08-20T03:45:07.311Z,59.84
2018-08-20T03:46:17.479Z,59.75
2018-08-20T03:47:28.609Z,59.84
2018-08-20T03:48:38.752Z,59.84
2018-08-20T03:49:48.922Z,60.13
2018-08-20T03:50:59.102Z,59.45
2018-08-20T03:52:09.229Z,59.55
2018-08-20T03:53:19.375Z,59.84
2018-08-20T03:54:29.697Z,60.03
2018-08-20T03:55:39.818Z,59.94
2018-08-20T03:56:49.599Z,59.94
2018-08-20T03:57:59.477Z,59.84
2018-08-20T03:59:09.391Z,59.84
2018-08-20T04:00:19.588Z,60.58
2018-08-20T04:01:29.752Z,60.1
2018-08-20T04:02:39.384Z,60.2
2018-08-20T04:03:49.307Z,60.2
2018-08-20T04:04:59.720Z,60.1
2018-08-20T04:06:10.485Z,60.39
2018-08-20T04:07:20.663Z,60.58
2018-08-20T04:08:30.853Z,60.39
2018-08-20T04:09:40.725Z,60.3
2018-08-20T04:10:50.888Z,60.1
2018-08-20T04:12:01.025Z,60.39
2018-08-20T04:13:11.150Z,60.49
2018-08-20T04:14:21.395Z,60.39
2018-08-20T04:15:31.594Z,60.3
2018-08-20T04:16:41.862Z,60.68
2018-08-20T04:17:52.021Z,60.39
2018-08-20T04:19:02.239Z,60.77
2018-08-20T04:20:12.359Z,60.68
2018-08-20T04:21:23.456Z,60.77
2018-08-20T04:22:33.570Z,60.68
2018-08-20T04:23:43.951Z,60.77
2018-08-20T04:24:54.104Z,60.58
2018-08-20T04:26:04.190Z,60.68
2018-08-20T04:27:14.421Z,60.49
2018-08-20T04:28:24.583Z,60.3
2018-08-20T04:29:35.796Z,60.97
2018-08-20T04:30:46.329Z,60.3
2018-08-20T04:31:56.697Z,60.49
2018-08-20T04:33:06.897Z,60.3
2018-08-20T04:34:16.782Z,60.77
2018-08-20T04:35:26.910Z,60.87
2018-08-20T04:36:37.379Z,60.58
2018-08-20T04:37:47.568Z,60.87
2018-08-20T04:38:57.734Z,60.68
2018-08-20T04:40:07.856Z,61.19
2018-08-20T04:41:18.008Z,60.97
2018-08-20T04:42:28.177Z,60.8
2018-08-20T04:43:38.056Z,60.8
2018-08-20T04:44:47.830Z,60.9
2018-08-20T04:45:57.712Z,60.8
2018-08-20T04:47:07.864Z,61.19
2018-08-20T04:48:17.772Z,60.9
2018-08-20T04:49:28.127Z,61.19
2018-08-20T04:50:38.422Z,60.61
2018-08-20T04:51:49.244Z,60.52
2018-08-20T04:52:59.367Z,60.71
2018-08-20T04:54:09.513Z,60.8
2018-08-20T04:55:19.654Z,60.32
2018-08-20T04:56:29.548Z,60.42
2018-08-20T04:57:39.700Z,60.26
2018-08-20T04:58:49.870Z,60.35
2018-08-20T05:00:00.060Z,60.45
2018-08-20T05:01:10.219Z,60.26
2018-08-20T05:02:20.365Z,60.45
2018-08-20T05:03:30.521Z,60.35
2018-08-20T05:04:40.661Z,60.26
2018-08-20T05:05:50.804Z,59.78
2018-08-20T05:07:01.018Z,59.87
2018-08-20T05:08:11.196Z,60.35
2018-08-20T05:09:21.418Z,59.68
2018-08-20T05:10:31.553Z,59.78
2018-08-20T05:11:41.780Z,59.87
2018-08-20T05:12:51.685Z,60.16
2018-08-20T05:14:01.830Z,59.87
2018-08-20T05:15:11.959Z,59.87
2018-08-20T05:16:22.196Z,59.78
2018-08-20T05:17:32.424Z,59.75
2018-08-20T05:18:42.604Z,60.32
2018-08-20T05:19:52.881Z,60.32
2018-08-20T05:21:02.750Z,60.42
2018-08-20T05:22:12.640Z,60.23
2018-08-20T05:23:22.760Z,60.42
2018-08-20T05:24:32.891Z,60.52
2018-08-20T05:25:42.658Z,60.42
2018-08-20T05:26:52.807Z,60.32
2018-08-20T05:28:02.971Z,60.32
2018-08-20T05:29:13.239Z,60.8
2018-08-20T05:30:23.590Z,60.61
2018-08-20T05:31:33.761Z,60.61
2018-08-20T05:32:43.899Z,61.1
2018-08-20T05:33:54.018Z,61.1
2018-08-20T05:35:04.228Z,60.74
2018-08-20T05:36:14.365Z,61.22
2018-08-20T05:37:24.497Z,61.32
2018-08-20T05:38:34.492Z,61.22
2018-08-20T05:39:44.627Z,61.22
2018-08-20T05:40:54.507Z,61.32
2018-08-20T05:42:04.963Z,61.41
2018-08-20T05:43:15.077Z,61.41
2018-08-20T05:44:25.290Z,61.41
2018-08-20T05:45:35.429Z,61.61
2018-08-20T05:46:45.311Z,61.16
2018-08-20T05:47:55.440Z,60.96
2018-08-20T05:49:05.588Z,61.25
2018-08-20T05:50:15.757Z,61.16
2018-08-20T05:51:25.555Z,61.16
2018-08-20T05:52:35.645Z,61.74
2018-08-20T05:53:46.414Z,61.16
2018-08-20T05:54:56.605Z,60.8
2018-08-20T05:56:06.741Z,60.99
2018-08-20T05:57:16.755Z,61.19
2018-08-20T05:58:26.897Z,60.61
2018-08-20T05:59:37.036Z,60.89
2018-08-20T06:00:47.244Z,60.83
2018-08-20T06:01:57.178Z,61.12
2018-08-20T06:03:07.313Z,60.93
2018-08-20T06:04:17.482Z,60.44
2018-08-20T06:05:27.666Z,60.64
2018-08-20T06:06:37.861Z,60.16
2018-08-20T06:07:48.134Z,60.54
2018-08-20T06:08:58.535Z,60.67
2018-08-20T06:10:08.701Z,60.38
2018-08-20T06:11:18.842Z,60.18
2018-08-20T06:12:28.982Z,60.28
2018-08-20T06:13:39.211Z,59.8
2018-08-20T06:14:49.425Z,59.89
2018-08-20T06:15:59.581Z,59.89
2018-08-20T06:17:09.860Z,60.09
2018-08-20T06:18:20.102Z,60.18
2018-08-20T06:19:29.983Z,59.6
2018-08-20T06:20:40.134Z,59.51
2018-08-20T06:21:50.308Z,59.8
2018-08-20T06:23:00.186Z,59.8
2018-08-20T06:24:10.067Z,59.8
2018-08-20T06:25:20.274Z,59.53
2018-08-20T06:26:30.463Z,59.73
2018-08-20T06:27:40.614Z,59.53
2018-08-20T06:28:50.756Z,59.73
2018-08-20T06:30:00.624Z,59.83
2018-08-20T06:31:10.764Z,59.92
2018-08-20T06:32:20.899Z,59.83
2018-08-20T06:33:31.052Z,59.73
2018-08-20T06:34:41.222Z,60.21
2018-08-20T06:35:51.579Z,60.31
2018-08-20T06:37:01.793Z,60.21
2018-08-20T06:38:11.564Z,59.92
2018-08-20T06:39:21.709Z,60.41
2018-08-20T06:40:31.927Z,60.41
2018-08-20T06:41:42.174Z,60.6
2018-08-20T06:42:52.420Z,60.69
2018-08-20T06:44:02.653Z,60.89
2018-08-20T06:45:12.899Z,60.79
2018-08-20T06:46:23.058Z,61.08
2018-08-20T06:47:33.267Z,60.79
2018-08-20T06:48:43.573Z,60.99
2018-08-20T06:49:53.864Z,60.99
2018-08-20T06:51:03.987Z,60.89
2018-08-20T06:52:13.684Z,60.99
2018-08-20T06:53:23.837Z,60.89
2018-08-20T06:54:34.095Z,60.99
2018-08-20T06:55:44.009Z,60.99
2018-08-20T06:56:54.164Z,60.99
2018-08-20T06:58:04.086Z,60.99
2018-08-20T06:59:15.325Z,60.5
2018-08-20T07:00:25.487Z,61.18
2018-08-20T07:01:35.858Z,60.6
2018-08-20T07:02:46.035Z,60.6
2018-08-20T07:03:56.266Z,60.63
2018-08-20T07:05:06.462Z,60.44
2018-08-20T07:06:17.575Z,60.53
2018-08-20T07:07:28.126Z,60.92
2018-08-20T07:08:38.293Z,60.82
2018-08-20T07:09:48.191Z,60.53
2018-08-20T07:10:58.345Z,60.82
2018-08-20T07:12:08.530Z,60.72
2018-08-20T07:13:18.677Z,60.44
2018-08-20T07:14:28.813Z,60.53
2018-08-20T07:15:38.945Z,60.53
2018-08-20T07:16:49.112Z,60.72
2018-08-20T07:17:59.302Z,60.53
2018-08-20T07:19:09.483Z,60.53
2018-08-20T07:20:19.641Z,60.34
2018-08-20T07:21:29.809Z,60.47
2018-08-20T07:22:40.014Z,60.44
2018-08-20T07:23:50.540Z,60.44
2018-08-20T07:25:01.093Z,60.44
2018-08-20T07:26:10.986Z,60.47
2018-08-20T07:27:21.133Z,60.34
2018-08-20T07:28:31.133Z,60.34
2018-08-20T07:29:41.329Z,60.24
2018-08-20T07:30:51.194Z,60.53
2018-08-20T07:32:01.352Z,60.34
2018-08-20T07:33:11.233Z,60.53
2018-08-20T07:34:21.399Z,60.72
2018-08-20T07:35:31.535Z,60.47
2018-08-20T07:36:41.634Z,60.53
2018-08-20T07:37:51.765Z,60.44
2018-08-20T07:39:01.910Z,60.72
2018-08-20T07:40:12.090Z,61.11
2018-08-20T07:41:22.281Z,60.72
2018-08-20T07:42:32.755Z,61.11
2018-08-20T07:43:43.044Z,60.72
2018-08-20T07:44:53.336Z,61.11
2018-08-20T07:46:03.511Z,60.63
2018-08-20T07:47:13.650Z,60.57
2018-08-20T07:48:23.800Z,60.72
2018-08-20T07:49:33.572Z,60.72
2018-08-20T07:50:43.814Z,60.53
2018-08-20T07:51:54.297Z,60.92
2018-08-20T07:53:04.468Z,60.72
2018-08-20T07:54:14.628Z,60.72
2018-08-20T07:55:24.842Z,60.53
2018-08-20T07:56:35.078Z,60.63
2018-08-20T07:57:45.238Z,60.82
2018-08-20T07:58:55.388Z,59.98
2018-08-20T08:00:05.560Z,60.08
2018-08-20T08:01:15.707Z,59.89
2018-08-20T08:02:25.845Z,59.69
2018-08-20T08:03:35.756Z,59.89
2018-08-20T08:04:45.546Z,59.69
2018-08-20T08:05:55.320Z,59.98
2018-08-20T08:07:05.498Z,59.79
2018-08-20T08:08:15.632Z,59.98
2018-08-20T08:09:25.824Z,59.79
2018-08-20T08:10:35.973Z,59.59
2018-08-20T08:11:46.180Z,59.59
2018-08-20T08:12:56.317Z,59.89
2018-08-20T08:14:06.517Z,59.89
2018-08-20T08:15:17.039Z,59.89
2018-08-20T08:16:26.689Z,59.98
2018-08-20T08:17:36.877Z,59.89
2018-08-20T08:18:46.655Z,59.89
2018-08-20T08:19:57.225Z,59.69
2018-08-20T08:21:07.263Z,59.89
2018-08-20T08:22:17.408Z,59.79
2018-08-20T08:23:27.576Z,59.89
2018-08-20T08:24:37.786Z,59.33
2018-08-20T08:25:47.988Z,59.4
2018-08-20T08:26:58.185Z,59.43
2018-08-20T08:28:08.463Z,59.43
2018-08-20T08:29:18.446Z,59.43
2018-08-20T08:30:28.582Z,59.05
2018-08-20T08:31:39.709Z,59.05
2018-08-20T08:32:49.918Z,58.75
2018-08-20T08:34:00.081Z,59.14
2018-08-20T08:35:10.246Z,59.33
2018-08-20T08:36:20.426Z,59.05
2018-08-20T08:37:30.668Z,58.56
2018-08-20T08:38:40.891Z,58.85
2018-08-20T08:39:51.035Z,58.95
2018-08-20T08:41:01.219Z,58.95
2018-08-20T08:42:11.429Z,58.69
2018-08-20T08:43:21.392Z,58.78
2018-08-20T08:44:31.570Z,58.59
2018-08-20T08:45:41.792Z,58.69
2018-08-20T08:46:51.988Z,58.2
2018-08-20T08:48:01.871Z,58.49
2018-08-20T08:49:11.869Z,58.07
2018-08-20T08:50:21.873Z,58.3
2018-08-20T08:51:32.015Z,58.49
2018-08-20T08:52:42.165Z,58.3
2018-08-20T08:53:52.348Z,58.39
2018-08-20T08:55:02.528Z,58.37
2018-08-20T08:56:12.932Z,58.65
2018-08-20T08:57:23.069Z,58.47
2018-08-20T08:58:33.297Z,58.56
2018-08-20T08:59:43.522Z,58.65
2018-08-20T09:00:53.726Z,58.37
2018-08-20T09:02:03.898Z,58.75
2018-08-20T09:03:13.777Z,58.56
2018-08-20T09:04:23.937Z,58.56
2018-08-20T09:05:33.827Z,58.27
2018-08-20T09:06:43.992Z,58.27
2018-08-20T09:07:53.894Z,58.37
2018-08-20T09:09:03.833Z,58.27
2018-08-20T09:10:13.999Z,58.17
2018-08-20T09:11:24.156Z,58.3
2018-08-20T09:12:34.380Z,57.91
2018-08-20T09:13:44.750Z,57.81
2018-08-20T09:14:54.951Z,57.81
2018-08-20T09:16:06.104Z,58.11
2018-08-20T09:17:16.312Z,57.91
2018-08-20T09:18:26.553Z,57.91
2018-08-20T09:19:36.744Z,57.62
2018-08-20T09:20:47.548Z,57.33
2018-08-20T09:21:57.429Z,57.65
2018-08-20T09:23:07.590Z,57.36
2018-08-20T09:24:17.356Z,57.55
2018-08-20T09:25:27.332Z,56.87
2018-08-20T09:26:37.617Z,56.87
2018-08-20T09:27:47.793Z,56.97
2018-08-20T09:28:57.976Z,56.87
2018-08-20T09:30:07.938Z,56.97
2018-08-20T09:31:18.064Z,56.97
2018-08-20T09:32:28.050Z,56.87
2018-08-20T09:33:38.004Z,56.85
2018-08-20T09:34:48.222Z,57.43
2018-08-20T09:35:58.349Z,57.23
2018-08-20T09:37:08.616Z,57.62
2018-08-20T09:38:18.885Z,57.53
2018-08-20T09:39:29.560Z,57.23
2018-08-20T09:40:39.735Z,57.62
2018-08-20T09:41:50.121Z,57.14
2018-08-20T09:43:00.328Z,57.53
2018-08-20T09:44:10.105Z,57.43
2018-08-20T09:45:20.001Z,57.33
2018-08-20T09:46:30.228Z,57.04
2018-08-20T09:47:40.458Z,56.94
2018-08-20T09:48:50.614Z,57.23
2018-08-20T09:50:00.745Z,57.14
2018-08-20T09:51:10.958Z,57.23
2018-08-20T09:52:21.090Z,57.04
2018-08-20T09:53:31.405Z,57.14
2018-08-20T09:54:41.624Z,56.94
2018-08-20T09:55:51.764Z,57.33
2018-08-20T09:57:01.921Z,57.14
2018-08-20T09:58:11.832Z,57.23
2018-08-20T09:59:21.981Z,57.71
2018-08-20T10:00:31.855Z,57.33
2018-08-20T10:01:41.991Z,57.23
2018-08-20T10:02:52.140Z,57.59
2018-08-20T10:04:02.310Z,57.69
2018-08-20T10:05:12.455Z,57.88
2018-08-20T10:06:22.747Z,58.27
2018-08-20T10:07:33.101Z,58.47
2018-08-20T10:08:44.000Z,58.37
2018-08-20T10:09:54.344Z,58.47
2018-08-20T10:11:04.519Z,58.37
2018-08-20T10:12:14.155Z,58.37
2018-08-20T10:13:24.331Z,58.65
2018-08-20T10:14:34.460Z,58.56
2018-08-20T10:15:44.797Z,58.27
2018-08-20T10:16:55.042Z,58.39
2018-08-20T10:18:05.210Z,57.81
2018-08-20T10:19:15.347Z,57.81
2018-08-20T10:20:25.478Z,57.91
2018-08-20T10:21:35.623Z,57.91
2018-08-20T10:22:45.766Z,57.91
2018-08-20T10:23:55.600Z,57.91
2018-08-20T10:25:05.770Z,57.59
2018-08-20T10:26:16.035Z,57.81
2018-08-20T10:27:26.206Z,57.91
2018-08-20T10:28:36.390Z,57.91
2018-08-20T10:29:46.618Z,57.81
2018-08-20T10:30:56.767Z,57.91
2018-08-20T10:32:06.830Z,57.71
2018-08-20T10:33:17.350Z,57.62
2018-08-20T10:34:27.609Z,58.11
2018-08-20T10:35:37.527Z,57.81
2018-08-20T10:36:47.657Z,58.01
2018-08-20T10:37:58.027Z,57.43
2018-08-20T10:39:08.862Z,57.71
2018-08-20T10:40:19.041Z,57.43
2018-08-20T10:41:29.288Z,57.14
2018-08-20T10:42:39.457Z,57.23
2018-08-20T10:43:49.799Z,57.23
2018-08-20T10:44:59.870Z,57.23
2018-08-20T10:46:10.021Z,57.23
2018-08-20T10:47:20.160Z,57.23
2018-08-20T10:48:30.322Z,57.23
2018-08-20T10:49:40.512Z,57.14
2018-08-20T10:50:50.391Z,57.43
2018-08-20T10:52:00.511Z,56.85
2018-08-20T10:53:10.403Z,57.14
2018-08-20T10:54:20.554Z,57.04
2018-08-20T10:55:30.680Z,56.94
2018-08-20T10:56:40.691Z,56.77
2018-08-20T10:57:50.388Z,56
2018-08-20T10:59:00.561Z,56.2
2018-08-20T11:00:10.840Z,56.2
2018-08-20T11:01:20.781Z,56.68
2018-08-20T11:02:30.945Z,56.29
2018-08-20T11:03:40.832Z,56.2
2018-08-20T11:04:50.965Z,56.1
2018-08-20T11:06:01.150Z,55.81
2018-08-20T11:07:11.299Z,56.1
2018-08-20T11:08:21.450Z,56
2018-08-20T11:09:31.619Z,56
2018-08-20T11:10:41.424Z,55.9
2018-08-20T11:11:51.761Z,55.81
2018-08-20T11:13:01.648Z,55.83
2018-08-20T11:14:11.788Z,55.44
2018-08-20T11:15:21.939Z,55.54
2018-08-20T11:16:32.135Z,55.06
2018-08-20T11:17:42.317Z,55.28
2018-08-20T11:18:52.822Z,54.6
2018-08-20T11:20:03.331Z,54.7
2018-08-20T11:21:14.232Z,54.9
2018-08-20T11:22:24.028Z,54.41
2018-08-20T11:23:34.157Z,54.58
2018-08-20T11:24:44.300Z,54.28
2018-08-20T11:25:54.182Z,54.67
2018-08-20T11:27:04.534Z,54.58
2018-08-20T11:28:14.756Z,54.02
2018-08-20T11:29:25.016Z,54.21
2018-08-20T11:30:35.353Z,53.89
2018-08-20T11:31:45.568Z,53.89
2018-08-20T11:32:55.871Z,53.89
2018-08-20T11:34:06.036Z,53.22
2018-08-20T11:35:16.186Z,53.12
2018-08-20T11:36:26.570Z,53.12
2018-08-20T11:37:36.801Z,53.41
2018-08-20T11:38:46.953Z,53.31
2018-08-20T11:39:57.100Z,53.51
2018-08-20T11:41:07.345Z,53.41
2018-08-20T11:42:17.516Z,53.24
2018-08-20T11:43:27.505Z,53.53
2018-08-20T11:44:38.015Z,53.44
2018-08-20T11:45:48.520Z,53.44
2018-08-20T11:46:58.679Z,53.15
2018-08-20T11:48:08.876Z,53.34
2018-08-20T11:49:19.318Z,53.15
2018-08-20T11:50:29.475Z,52.76
2018-08-20T11:51:39.618Z,53.15
2018-08-20T11:52:49.587Z,52.86
2018-08-20T11:53:59.970Z,53.05
2018-08-20T11:55:10.029Z,53.15
2018-08-20T11:56:20.183Z,52.78
2018-08-20T11:57:30.090Z,52.88
2018-08-20T11:58:40.251Z,52.88
2018-08-20T11:59:50.392Z,52.78
2018-08-20T12:01:00.599Z,53.08
2018-08-20T12:02:10.771Z,53.08
2018-08-20T12:03:21.013Z,52.98
2018-08-20T12:04:30.887Z,52.78
2018-08-20T12:05:41.027Z,52.5
2018-08-20T12:06:51.213Z,52.78
2018-08-20T12:08:01.612Z,52.88
2018-08-20T12:09:11.752Z,52.69
2018-08-20T12:10:21.954Z,53.08
2018-08-20T12:11:31.837Z,52.69
2018-08-20T12:12:41.980Z,52.4
2018-08-20T12:13:52.177Z,52.4
2018-08-20T12:15:02.339Z,52.2
2018-08-20T12:16:13.542Z,52.59
2018-08-20T12:17:23.402Z,52.5
2018-08-20T12:18:33.694Z,52.69
2018-08-20T12:19:43.689Z,52.59
2018-08-20T12:20:53.900Z,52.5
2018-08-20T12:22:04.173Z,52.78
2018-08-20T12:23:14.575Z,52.01
2018-08-20T12:24:24.649Z,52.4
2018-08-20T12:25:34.559Z,52.37
2018-08-20T12:26:45.663Z,52.18
2018-08-20T12:27:55.836Z,52.56
2018-08-20T12:29:06.049Z,52.86
2018-08-20T12:30:16.185Z,53.15
2018-08-20T12:31:26.328Z,52.95
2018-08-20T12:32:36.554Z,52.95
2018-08-20T12:33:46.767Z,53.44
2018-08-20T12:34:56.998Z,53.31
2018-08-20T12:36:07.221Z,53.02
2018-08-20T12:37:17.480Z,52.93
2018-08-20T12:38:27.642Z,53.31
2018-08-20T12:39:37.793Z,53.41
2018-08-20T12:40:48.099Z,53.7
2018-08-20T12:41:58.096Z,53.8
2018-08-20T12:43:08.248Z,53.89
2018-08-20T12:44:18.405Z,53.8
2018-08-20T12:45:28.552Z,53.89
2018-08-20T12:46:39.715Z,54.02
2018-08-20T12:47:49.956Z,53.53
2018-08-20T12:49:00.235Z,53.44
2018-08-20T12:50:10.413Z,52.95
2018-08-20T12:51:20.599Z,53.15
2018-08-20T12:52:30.786Z,53.05
2018-08-20T12:53:41.065Z,53.15
2018-08-20T12:54:51.250Z,53.24
2018-08-20T12:56:01.469Z,53.05
2018-08-20T12:57:11.929Z,53.05
2018-08-20T12:58:22.117Z,53.44
2018-08-20T12:59:32.300Z,52.76
2018-08-20T13:00:42.589Z,52.18
2018-08-20T13:01:52.867Z,52.01
2018-08-20T13:03:03.075Z,52.47
2018-08-20T13:04:13.248Z,52.47
2018-08-20T13:05:23.097Z,52.76
2018-08-20T13:06:33.283Z,52.76
2018-08-20T13:07:43.432Z,53.05
2018-08-20T13:08:53.784Z,52.86
2018-08-20T13:10:04.411Z,52.95
2018-08-20T13:11:16.518Z,53.15
2018-08-20T13:12:26.670Z,52.78
2018-08-20T13:13:36.828Z,52.98
2018-08-20T13:14:47.001Z,52.5
2018-08-20T13:15:57.367Z,52.2
2018-08-20T13:17:08.230Z,52.4
2018-08-20T13:18:18.046Z,52.11
2018-08-20T13:19:28.221Z,51.98
2018-08-20T13:20:38.423Z,52.08
2018-08-20T13:21:48.563Z,52.3
2018-08-20T13:22:58.732Z,52.95
2018-08-20T13:24:08.981Z,52.86
2018-08-20T13:25:18.852Z,52.66
2018-08-20T13:26:29.011Z,52.98
2018-08-20T13:27:39.149Z,52.4
2018-08-20T13:28:49.195Z,52.5
2018-08-20T13:30:00.341Z,52.59
2018-08-20T13:31:10.237Z,52.78
2018-08-20T13:32:20.170Z,52.98
2018-08-20T13:33:30.323Z,53.17
2018-08-20T13:34:40.517Z,52.76
2018-08-20T13:35:51.401Z,53.34
2018-08-20T13:37:01.347Z,53.44
2018-08-20T13:38:11.552Z,53.73
2018-08-20T13:39:21.686Z,54.09
2018-08-20T13:40:32.119Z,53.89
2018-08-20T13:41:42.276Z,54.67
2018-08-20T13:42:52.751Z,54.96
2018-08-20T13:44:03.102Z,54.74
2018-08-20T13:45:13.645Z,54.84
2018-08-20T13:46:23.778Z,55.13
2018-08-20T13:47:33.987Z,56.29
2018-08-20T13:48:44.126Z,56.29
2018-08-20T13:49:53.926Z,57.33
2018-08-20T13:51:04.145Z,57.43
2018-08-20T13:52:14.293Z,57.91
2018-08-20T13:53:24.546Z,57.81
2018-08-20T13:54:34.691Z,58.2
2018-08-20T13:55:44.849Z,58.49
2018-08-20T13:56:55.089Z,59.17
2018-08-20T13:58:05.248Z,59.36
2018-08-20T13:59:15.513Z,59.75
2018-08-20T14:00:25.817Z,59.75
2018-08-20T14:01:35.703Z,60.36
2018-08-20T14:02:45.867Z,60.14
2018-08-20T14:03:55.749Z,60.14
2018-08-20T14:05:05.917Z,60.33
2018-08-20T14:06:15.744Z,60.33
2018-08-20T14:07:25.939Z,60.14
2018-08-20T14:08:36.083Z,60.52
2018-08-20T14:09:46.223Z,60.65
2018-08-20T14:10:56.422Z,60.24
2018-08-20T14:12:06.353Z,59.84
2018-08-20T14:13:16.701Z,59.78
2018-08-20T14:14:26.712Z,59.75
2018-08-20T14:15:36.929Z,59.59
2018-08-20T14:16:47.510Z,59
2018-08-20T14:17:57.870Z,59
2018-08-20T14:19:08.061Z,59
2018-08-20T14:20:18.005Z,58.81
2018-08-20T14:21:28.133Z,59
2018-08-20T14:22:38.295Z,59.1
2018-08-20T14:23:48.459Z,59.2
2018-08-20T14:24:58.407Z,58.91
2018-08-20T14:26:08.812Z,59.2
2018-08-20T14:27:18.961Z,59.59
2018-08-20T14:28:29.131Z,59.78
2018-08-20T14:29:39.291Z,59.49
2018-08-20T14:30:48.970Z,59.1
2018-08-20T14:31:58.960Z,59.2
2018-08-20T14:33:09.139Z,59.1
2018-08-20T14:34:19.310Z,59.49
2018-08-20T14:35:29.459Z,59.69
2018-08-20T14:36:39.942Z,59.78
2018-08-20T14:37:50.490Z,59.78
2018-08-20T14:39:00.627Z,59.49
2018-08-20T14:40:10.563Z,59.69
2018-08-20T14:41:20.723Z,59.69
2018-08-20T14:42:31.117Z,59.49
2018-08-20T14:43:41.355Z,59.49
2018-08-20T14:44:51.526Z,59.61
2018-08-20T14:46:01.437Z,59.59
2018-08-20T14:47:11.637Z,59.69
2018-08-20T14:48:21.812Z,59.61
2018-08-20T14:49:31.704Z,59.03
2018-08-20T14:50:41.619Z,59.2
2018-08-20T14:51:51.809Z,59.23
2018-08-20T14:53:02.188Z,59
2018-08-20T14:54:12.356Z,59.23
2018-08-20T14:55:22.522Z,59.2
2018-08-20T14:56:32.687Z,59.3
2018-08-20T14:57:42.826Z,59
2018-08-20T14:58:52.983Z,59
2018-08-20T15:00:02.916Z,59.1
2018-08-20T15:01:13.140Z,59.1
2018-08-20T15:02:23.548Z,59
2018-08-20T15:03:33.593Z,59.3
2018-08-20T15:04:43.789Z,59
2018-08-20T15:05:53.720Z,59.2
2018-08-20T15:07:03.622Z,59.88
2018-08-20T15:08:13.778Z,59.2